createdAt,value
2023-03-25T00:01:16.614Z,88.17
2023-03-25T00:03:48.067Z,87.22
2023-03-25T00:06:16.651Z,88.49
2023-03-25T00:08:47.266Z,87.75
2023-03-25T00:11:30.499Z,87.86
2023-03-25T00:13:59.414Z,87.59
2023-03-25T00:16:37.322Z,87.56
2023-03-25T00:19:06.733Z,86.46
2023-03-25T00:21:37.379Z,85.90
2023-03-25T00:24:08.361Z,86.47
2023-03-25T00:26:43.320Z,86.24
2023-03-25T00:29:12.334Z,84.17
2023-03-25T00:31:41.091Z,85.11
2023-03-25T00:34:14.688Z,84.94
2023-03-25T00:36:43.943Z,84.63
2023-03-25T00:39:18.164Z,84.69
2023-03-25T00:41:49.224Z,84.20
2023-03-25T00:44:18.154Z,83.75
2023-03-25T00:46:47.614Z,85.76
2023-03-25T00:49:17.870Z,84.50
2023-03-25T00:51:53.084Z,84.66
2023-03-25T00:54:26.502Z,84.92
2023-03-25T00:56:54.748Z,85.16
2023-03-25T00:59:27.360Z,85.22
2023-03-25T01:01:57.590Z,84.22
2023-03-25T01:04:26.853Z,83.78
2023-03-25T01:09:53.070Z,83.63
2023-03-25T01:12:25.440Z,83.78
2023-03-25T01:14:56.672Z,83.21
2023-03-25T01:17:27.648Z,83.16
2023-03-25T01:19:57.831Z,82.55
2023-03-25T01:22:27.135Z,80.75
2023-03-25T01:24:58.478Z,80.31
2023-03-25T01:27:27.303Z,80.67
2023-03-25T01:29:58.105Z,80.01
2023-03-25T01:32:33.717Z,80.73
2023-03-25T01:35:05.533Z,79.98
2023-03-25T01:37:36.722Z,79.23
2023-03-25T01:40:21.217Z,78.33
2023-03-25T01:42:51.756Z,78.93
2023-03-25T01:45:34.585Z,78.96
2023-03-25T01:48:16.319Z,77.49
2023-03-25T01:50:47.000Z,78.15
2023-03-25T01:53:19.212Z,77.10
2023-03-25T01:55:50.628Z,78.14
2023-03-25T01:58:20.111Z,78.52
2023-03-25T02:00:50.343Z,79.13
2023-03-25T02:03:22.388Z,78.71
2023-03-25T02:05:54.635Z,79.07
2023-03-25T02:08:24.094Z,79.53
2023-03-25T02:10:57.813Z,79.88
2023-03-25T02:13:26.956Z,80.53
2023-03-25T02:16:22.718Z,80.78
2023-03-25T02:19:01.486Z,81.49
2023-03-25T02:21:49.426Z,81.83
2023-03-25T02:24:48.628Z,82.29
2023-03-25T02:30:40.832Z,82.19
2023-03-25T02:33:50.478Z,83.22
2023-03-25T02:36:52.882Z,91.99
2023-03-25T02:39:24.088Z,91.78
2023-03-25T02:41:54.920Z,92.51
2023-03-25T02:44:32.776Z,90.91
2023-03-25T02:47:06.520Z,90.09
2023-03-25T02:49:37.797Z,89.67
2023-03-25T02:52:10.614Z,87.64
2023-03-25T02:54:44.220Z,87.43
2023-03-25T02:57:17.606Z,87.33
2023-03-25T02:59:47.501Z,86.19
2023-03-25T03:02:16.737Z,86.32
2023-03-25T03:04:53.592Z,85.25
2023-03-25T03:07:25.739Z,86.18
2023-03-25T03:10:26.190Z,85.99
2023-03-25T03:13:04.649Z,86.41
2023-03-25T03:15:39.910Z,87.60
2023-03-25T03:18:14.847Z,86.64
2023-03-25T03:20:50.941Z,85.66
2023-03-25T03:23:24.590Z,86.68
2023-03-25T03:26:05.561Z,86.00
2023-03-25T03:28:38.044Z,86.05
2023-03-25T03:31:09.586Z,85.12
2023-03-25T03:33:43.386Z,85.39
2023-03-25T03:36:18.630Z,85.80
2023-03-25T03:38:54.570Z,84.66
2023-03-25T03:41:28.601Z,84.35
2023-03-25T03:44:00.231Z,84.53
2023-03-25T03:46:32.737Z,83.76
2023-03-25T03:49:06.234Z,84.24
2023-03-25T03:51:37.840Z,83.27
2023-03-25T03:54:14.177Z,80.03
2023-03-25T03:56:48.059Z,81.39
2023-03-25T03:59:21.860Z,80.47
2023-03-25T04:01:55.948Z,81.48
2023-03-25T04:04:27.260Z,80.16
2023-03-25T04:07:05.863Z,78.95
2023-03-25T04:09:41.908Z,80.30
2023-03-25T04:12:17.206Z,78.37
2023-03-25T04:14:49.199Z,77.94
2023-03-25T04:17:24.488Z,78.44
2023-03-25T04:19:53.839Z,79.65
2023-03-25T04:22:27.819Z,77.96
2023-03-25T04:25:02.456Z,77.91
2023-03-25T04:27:43.361Z,78.38
2023-03-25T04:30:21.460Z,78.12
2023-03-25T04:32:57.448Z,77.51
2023-03-25T04:35:28.718Z,78.33
2023-03-25T04:37:58.140Z,78.46
2023-03-25T04:40:31.251Z,79.31
2023-03-25T04:43:03.626Z,80.01
2023-03-25T04:45:36.921Z,78.69
2023-03-25T04:48:06.374Z,78.35
2023-03-25T04:50:35.015Z,79.57
2023-03-25T04:53:10.571Z,80.05
2023-03-25T04:55:54.815Z,79.67
2023-03-25T04:58:26.141Z,80.85
2023-03-25T05:00:56.869Z,79.78
2023-03-25T05:03:25.114Z,79.60
2023-03-25T05:05:55.535Z,78.54
2023-03-25T05:08:37.978Z,79.27
2023-03-25T05:11:12.502Z,77.66
2023-03-25T05:13:43.559Z,77.44
2023-03-25T05:16:14.521Z,76.86
2023-03-25T05:18:42.761Z,77.31
2023-03-25T05:21:16.627Z,77.56
2023-03-25T05:23:45.597Z,76.10
2023-03-25T05:26:17.541Z,77.83
2023-03-25T05:28:51.622Z,77.74
2023-03-25T05:31:22.888Z,76.97
2023-03-25T05:34:00.224Z,78.01
2023-03-25T05:36:30.017Z,77.79
2023-03-25T05:39:30.151Z,79.04
2023-03-25T05:44:52.548Z,77.96
2023-03-25T05:47:23.605Z,77.81
2023-03-25T05:49:54.343Z,77.86
2023-03-25T05:52:27.408Z,77.30
2023-03-25T05:54:55.912Z,78.48
2023-03-25T05:57:28.270Z,78.99
2023-03-25T06:00:05.534Z,79.01
2023-03-25T06:02:42.131Z,78.30
2023-03-25T06:05:16.117Z,79.78
2023-03-25T06:07:47.065Z,78.73
2023-03-25T06:10:38.466Z,78.79
2023-03-25T06:13:07.873Z,80.34
2023-03-25T06:15:46.668Z,78.76
2023-03-25T06:18:15.107Z,77.70
2023-03-25T06:20:47.832Z,77.15
2023-03-25T06:23:42.343Z,79.53
2023-03-25T06:26:12.001Z,77.15
2023-03-25T06:28:44.770Z,79.11
2023-03-25T06:31:28.428Z,78.14
2023-03-25T06:34:01.882Z,78.38
2023-03-25T06:36:33.599Z,77.92
2023-03-25T06:39:04.579Z,78.13
2023-03-25T06:41:39.918Z,77.46
2023-03-25T06:44:07.786Z,75.71
2023-03-25T06:46:47.691Z,77.73
2023-03-25T06:49:16.624Z,76.42
2023-03-25T06:51:48.692Z,76.84
2023-03-25T06:54:23.063Z,76.51
2023-03-25T06:56:53.850Z,77.62
2023-03-25T06:59:25.767Z,77.17
2023-03-25T07:01:57.805Z,77.90
2023-03-25T07:07:53.070Z,80.22
2023-03-25T07:10:25.073Z,80.18
2023-03-25T07:12:58.078Z,79.90
2023-03-25T07:15:32.680Z,79.29
2023-03-25T07:18:03.105Z,78.88
2023-03-25T07:20:33.228Z,79.45
2023-03-25T07:23:03.995Z,79.14
2023-03-25T07:25:35.489Z,79.02
2023-03-25T07:28:06.453Z,80.25
2023-03-25T07:30:36.269Z,78.74
2023-03-25T07:33:12.051Z,77.97
2023-03-25T07:35:41.646Z,78.77
2023-03-25T07:38:12.770Z,78.25
2023-03-25T07:40:41.745Z,79.34
2023-03-25T07:43:10.059Z,77.94
2023-03-25T07:45:44.609Z,78.79
2023-03-25T07:48:17.945Z,78.63
2023-03-25T07:50:46.628Z,78.40
2023-03-25T07:53:17.831Z,77.99
2023-03-25T07:55:52.514Z,77.84
2023-03-25T07:58:21.798Z,77.17
2023-03-25T08:00:51.480Z,77.96
2023-03-25T08:03:22.284Z,77.08
2023-03-25T08:05:55.948Z,76.38
2023-03-25T08:08:31.512Z,75.52
2023-03-25T08:11:09.176Z,75.92
2023-03-25T08:13:38.543Z,76.21
2023-03-25T08:16:12.255Z,76.65
2023-03-25T08:18:49.227Z,74.58
2023-03-25T08:21:17.541Z,75.82
2023-03-25T08:23:46.073Z,75.42
2023-03-25T08:26:17.472Z,74.41
2023-03-25T08:28:47.605Z,75.16
2023-03-25T08:31:15.882Z,74.92
2023-03-25T08:33:46.014Z,76.04
2023-03-25T08:36:20.169Z,78.49
2023-03-25T08:38:52.605Z,82.21
2023-03-25T08:41:20.810Z,81.96
2023-03-25T08:43:49.106Z,82.24
2023-03-25T08:46:17.687Z,81.52
2023-03-25T08:48:56.124Z,80.86
2023-03-25T08:51:24.684Z,83.55
2023-03-25T08:53:54.420Z,84.08
2023-03-25T08:56:26.387Z,86.39
2023-03-25T08:58:58.340Z,86.02
2023-03-25T09:01:30.433Z,87.32
2023-03-25T09:04:05.596Z,85.63
2023-03-25T09:06:47.819Z,86.05
2023-03-25T09:09:26.242Z,85.16
2023-03-25T09:11:55.050Z,82.79
2023-03-25T09:14:42.485Z,82.56
2023-03-25T09:17:11.293Z,84.47
2023-03-25T09:19:41.659Z,84.20
2023-03-25T09:22:17.385Z,83.34
2023-03-25T09:24:46.036Z,83.24
2023-03-25T09:27:22.028Z,83.55
2023-03-25T09:29:50.577Z,83.75
2023-03-25T09:32:23.370Z,83.74
2023-03-25T09:37:51.919Z,83.72
2023-03-25T09:40:24.785Z,83.39
2023-03-25T09:43:02.155Z,83.20
2023-03-25T09:45:37.791Z,83.54
2023-03-25T09:48:14.927Z,83.95
2023-03-25T09:50:52.731Z,84.34
2023-03-25T09:53:31.400Z,83.99
2023-03-25T09:56:20.549Z,83.51
2023-03-25T09:59:00.151Z,81.43
2023-03-25T10:01:41.683Z,80.18
2023-03-25T10:04:38.826Z,81.08
2023-03-25T10:07:35.102Z,79.62
2023-03-25T10:12:23.737Z,78.62
2023-03-25T10:13:48.654Z,76.98
2023-03-25T10:16:27.799Z,76.63
2023-03-25T10:19:20.288Z,76.51
2023-03-25T10:21:57.810Z,76.74
2023-03-25T10:24:40.060Z,77.37
2023-03-25T10:27:20.145Z,76.12
2023-03-25T10:29:52.366Z,75.13
2023-03-25T10:32:39.438Z,74.34
2023-03-25T10:35:11.693Z,71.83
2023-03-25T10:37:44.948Z,72.45
2023-03-25T10:40:25.530Z,71.61
2023-03-25T10:43:09.615Z,74.43
2023-03-25T10:45:39.934Z,75.22
2023-03-25T10:48:14.921Z,75.43
2023-03-25T10:50:48.963Z,75.10
2023-03-25T10:53:37.780Z,75.04
2023-03-25T10:56:10.667Z,74.31
2023-03-25T10:58:41.802Z,73.36
2023-03-25T11:01:13.611Z,72.41
2023-03-25T11:03:44.651Z,71.99
2023-03-25T11:06:24.516Z,72.60
2023-03-25T11:09:28.626Z,73.25
2023-03-25T11:12:01.313Z,74.03
2023-03-25T11:14:34.816Z,74.08
2023-03-25T11:17:17.545Z,71.65
2023-03-25T11:19:53.748Z,72.05
2023-03-25T11:22:31.353Z,71.32
2023-03-25T11:25:05.921Z,70.43
2023-03-25T11:27:47.741Z,71.09
2023-03-25T11:30:20.967Z,70.80
2023-03-25T11:33:01.725Z,68.70
2023-03-25T11:35:46.268Z,67.71
2023-03-25T11:38:17.642Z,67.56
2023-03-25T11:40:55.061Z,68.09
2023-03-25T11:43:30.473Z,66.72
2023-03-25T11:46:10.876Z,66.36
2023-03-25T11:48:41.465Z,66.67
2023-03-25T11:51:14.801Z,68.54
2023-03-25T11:53:49.707Z,72.06
2023-03-25T11:56:23.358Z,73.54
2023-03-25T11:58:57.442Z,72.39
2023-03-25T12:01:32.829Z,72.29
2023-03-25T12:04:19.876Z,70.85
2023-03-25T12:07:04.528Z,68.44
2023-03-25T12:09:33.745Z,68.65
2023-03-25T12:12:12.460Z,67.92
2023-03-25T12:14:52.090Z,69.64
2023-03-25T12:17:24.450Z,67.84
2023-03-25T12:20:05.434Z,68.91
2023-03-25T12:22:47.226Z,70.28
2023-03-25T12:25:30.053Z,72.56
2023-03-25T12:28:16.461Z,72.93
2023-03-25T12:30:58.088Z,75.08
2023-03-25T12:33:45.075Z,76.02
2023-03-25T12:36:31.467Z,79.85
2023-03-25T12:39:11.216Z,80.18
2023-03-25T12:41:47.664Z,79.16
2023-03-25T12:44:27.579Z,78.65
2023-03-25T12:47:20.946Z,76.44
2023-03-25T12:50:06.979Z,75.28
2023-03-25T12:52:48.259Z,73.30
2023-03-25T12:55:30.284Z,72.54
2023-03-25T12:58:19.148Z,70.95
2023-03-25T13:00:52.426Z,72.15
2023-03-25T13:03:43.635Z,71.37
2023-03-25T13:06:20.628Z,71.54
2023-03-25T13:08:55.552Z,70.63
2023-03-25T13:11:29.206Z,70.83
2023-03-25T13:13:59.735Z,69.65
2023-03-25T13:16:31.694Z,70.99
2023-03-25T13:19:08.533Z,72.47
2023-03-25T13:21:45.802Z,72.09
2023-03-25T13:24:18.334Z,71.69
2023-03-25T13:26:51.704Z,71.20
2023-03-25T13:29:27.994Z,70.15
2023-03-25T13:32:00.852Z,69.72
2023-03-25T13:34:36.634Z,68.95
2023-03-25T13:37:10.208Z,69.83
2023-03-25T13:39:54.866Z,68.27
2023-03-25T13:42:31.788Z,66.89
2023-03-25T13:45:00.440Z,68.06
2023-03-25T13:47:37.258Z,69.95
2023-03-25T13:50:15.924Z,69.00
2023-03-25T13:52:49.364Z,69.25
2023-03-25T13:55:21.390Z,68.94
2023-03-25T13:58:19.560Z,68.50
2023-03-25T14:01:07.218Z,70.19
2023-03-25T14:04:12.314Z,70.51
2023-03-25T14:07:14.635Z,71.10
2023-03-25T14:10:09.308Z,69.24
2023-03-25T14:12:39.367Z,67.92
2023-03-25T14:15:12.709Z,64.84
2023-03-25T14:17:45.846Z,66.75
2023-03-25T14:20:26.322Z,66.38
2023-03-25T14:23:01.264Z,66.34
2023-03-25T14:25:34.272Z,65.77
2023-03-25T14:28:05.678Z,65.63
2023-03-25T14:30:38.651Z,65.29
2023-03-25T14:33:11.886Z,65.08
2023-03-25T14:35:53.011Z,65.07
2023-03-25T14:38:59.612Z,64.52
2023-03-25T14:42:07.356Z,63.36
2023-03-25T14:44:51.875Z,62.45
2023-03-25T14:47:35.479Z,61.37
2023-03-25T14:50:09.932Z,62.01
2023-03-25T14:52:41.503Z,59.77
2023-03-25T14:55:21.950Z,59.78
2023-03-25T14:57:56.778Z,61.32
2023-03-25T15:00:31.762Z,60.48
2023-03-25T15:03:03.309Z,59.55
2023-03-25T15:05:34.361Z,58.75
2023-03-25T15:08:14.717Z,58.45
2023-03-25T15:10:54.274Z,57.73
2023-03-25T15:13:28.739Z,59.79
2023-03-25T15:16:03.577Z,59.09
2023-03-25T15:19:15.782Z,58.54
2023-03-25T15:22:11.815Z,58.30
2023-03-25T15:24:49.816Z,58.43
2023-03-25T15:27:39.959Z,57.98
2023-03-25T15:30:21.241Z,58.62
2023-03-25T15:32:59.989Z,58.02
2023-03-25T15:35:41.185Z,57.75
2023-03-25T15:38:31.001Z,58.56
2023-03-25T15:41:11.965Z,58.18
2023-03-25T15:44:13.732Z,58.61
2023-03-25T15:47:06.741Z,59.29
2023-03-25T15:50:15.540Z,59.25
2023-03-25T15:53:32.608Z,58.49
2023-03-25T15:56:11.197Z,58.58
2023-03-25T15:58:46.296Z,59.50
2023-03-25T16:01:28.882Z,58.35
2023-03-25T16:04:03.520Z,58.14
2023-03-25T16:06:36.069Z,60.32
2023-03-25T16:09:11.260Z,59.96
2023-03-25T16:11:44.171Z,59.46
2023-03-25T16:17:07.562Z,58.56
2023-03-25T16:19:40.044Z,59.39
2023-03-25T16:22:19.670Z,58.56
2023-03-25T16:24:52.872Z,58.18
2023-03-25T16:27:25.060Z,59.03
2023-03-25T16:29:54.585Z,59.14
2023-03-25T16:32:28.283Z,59.37
2023-03-25T16:34:59.241Z,59.28
2023-03-25T16:37:34.464Z,60.74
2023-03-25T16:40:08.172Z,59.24
2023-03-25T16:42:38.045Z,59.16
2023-03-25T16:45:10.058Z,59.62
2023-03-25T16:47:41.706Z,59.87
2023-03-25T16:50:19.667Z,60.53
2023-03-25T16:52:49.763Z,61.06
2023-03-25T16:55:33.000Z,60.98
2023-03-25T16:58:05.376Z,59.61
2023-03-25T17:00:44.441Z,60.66
2023-03-25T17:03:22.255Z,60.25
2023-03-25T17:05:57.352Z,59.86
2023-03-25T17:08:27.049Z,60.95
2023-03-25T17:10:58.099Z,61.69
2023-03-25T17:13:30.033Z,61.51
2023-03-25T17:16:03.841Z,61.49
2023-03-25T17:18:38.110Z,61.04
2023-03-25T17:21:14.306Z,60.82
2023-03-25T17:23:48.955Z,61.61
2023-03-25T17:26:25.178Z,61.24
2023-03-25T17:29:03.190Z,61.78
2023-03-25T17:31:42.373Z,60.93
2023-03-25T17:34:16.562Z,61.63
2023-03-25T17:39:45.641Z,61.79
2023-03-25T17:42:23.742Z,61.72
2023-03-25T17:44:52.787Z,63.15
2023-03-25T17:47:22.095Z,62.48
2023-03-25T17:49:54.074Z,62.02
2023-03-25T17:52:23.855Z,62.35
2023-03-25T17:54:54.180Z,62.41
2023-03-25T17:57:25.736Z,63.21
2023-03-25T17:59:57.933Z,63.04
2023-03-25T18:02:26.627Z,63.94
2023-03-25T18:05:06.457Z,64.06
2023-03-25T18:07:35.375Z,64.20
2023-03-25T18:10:05.367Z,63.80
2023-03-25T18:12:34.312Z,64.73
2023-03-25T18:15:07.792Z,65.17
2023-03-25T18:17:41.757Z,64.99
2023-03-25T18:20:21.487Z,65.40
2023-03-25T18:22:49.893Z,66.28
2023-03-25T18:25:18.531Z,65.29
2023-03-25T18:27:53.946Z,65.71
2023-03-25T18:30:26.316Z,66.82
2023-03-25T18:32:55.622Z,67.14
2023-03-25T18:35:28.249Z,66.71
2023-03-25T18:37:58.358Z,67.17
2023-03-25T18:40:31.013Z,68.09
2023-03-25T18:43:02.574Z,66.52
2023-03-25T18:45:30.749Z,66.23
2023-03-25T18:47:58.958Z,67.33
2023-03-25T18:50:33.755Z,66.70
2023-03-25T18:53:04.938Z,66.75
2023-03-25T18:55:34.465Z,65.61
2023-03-25T18:58:04.670Z,64.93
2023-03-25T19:01:06.553Z,65.43
2023-03-25T19:03:41.170Z,65.21
2023-03-25T19:06:30.918Z,66.30
2023-03-25T19:09:02.943Z,66.12
2023-03-25T19:11:36.495Z,65.75
2023-03-25T19:14:04.557Z,67.29
2023-03-25T19:16:36.844Z,67.19
2023-03-25T19:19:07.864Z,68.49
2023-03-25T19:21:47.606Z,67.25
2023-03-25T19:24:16.296Z,73.39
2023-03-25T19:26:49.185Z,75.95
2023-03-25T19:29:17.703Z,78.31
2023-03-25T19:31:46.873Z,79.46
2023-03-25T19:34:17.022Z,80.28
2023-03-25T19:36:50.402Z,80.25
2023-03-25T19:39:25.947Z,80.07
2023-03-25T19:41:55.407Z,79.10
2023-03-25T19:44:25.428Z,78.91
2023-03-25T19:46:55.425Z,78.19
2023-03-25T19:49:39.164Z,78.67
2023-03-25T19:52:16.981Z,78.30
2023-03-25T19:54:45.435Z,78.51
2023-03-25T19:57:14.755Z,78.39
2023-03-25T19:59:48.135Z,77.55
2023-03-25T20:02:18.204Z,77.91
2023-03-25T20:04:48.420Z,78.37
2023-03-25T20:07:24.130Z,79.19
2023-03-25T20:09:54.969Z,78.17
2023-03-25T20:12:29.111Z,78.35
2023-03-25T20:14:58.307Z,78.62
2023-03-25T20:17:29.966Z,78.07
2023-03-25T20:20:08.500Z,78.45
2023-03-25T20:22:48.339Z,78.54
2023-03-25T20:25:24.158Z,78.11
2023-03-25T20:27:55.022Z,78.41
2023-03-25T20:30:32.224Z,78.32
2023-03-25T20:33:07.006Z,77.87
2023-03-25T20:35:38.619Z,77.93
2023-03-25T20:38:10.522Z,77.66
2023-03-25T20:40:44.476Z,76.92
2023-03-25T20:43:16.721Z,76.71
2023-03-25T20:45:50.153Z,77.22
2023-03-25T20:48:23.537Z,76.59
2023-03-25T20:50:53.017Z,75.85
2023-03-25T20:53:24.570Z,77.64
2023-03-25T20:55:57.227Z,76.79
2023-03-25T20:58:29.896Z,78.22
2023-03-25T21:01:01.373Z,76.69
2023-03-25T21:03:32.842Z,78.37
2023-03-25T21:06:10.377Z,77.94
2023-03-25T21:08:45.075Z,77.98
2023-03-25T21:11:14.444Z,77.90
2023-03-25T21:13:43.627Z,78.49
2023-03-25T21:16:13.303Z,79.09
2023-03-25T21:18:42.750Z,79.90
2023-03-25T21:21:14.623Z,78.75
2023-03-25T21:23:45.841Z,78.75
2023-03-25T21:26:16.724Z,78.21
2023-03-25T21:28:48.998Z,79.30
2023-03-25T21:31:23.466Z,81.27
2023-03-25T21:33:57.939Z,80.58
2023-03-25T21:36:31.576Z,81.64
2023-03-25T21:39:03.688Z,80.33
2023-03-25T21:41:35.363Z,80.65
2023-03-25T21:44:09.866Z,81.06
2023-03-25T21:46:39.201Z,80.96
2023-03-25T21:49:16.339Z,80.83
2023-03-25T21:51:51.339Z,77.77
2023-03-25T21:54:22.150Z,77.76
2023-03-25T21:56:54.752Z,76.93
2023-03-25T21:59:26.198Z,77.17
2023-03-25T22:01:58.055Z,77.98
2023-03-25T22:04:27.561Z,76.07
2023-03-25T22:06:56.800Z,74.32
2023-03-25T22:09:31.098Z,79.97
2023-03-25T22:11:59.699Z,82.53
2023-03-25T22:14:28.520Z,83.45
2023-03-25T22:16:57.566Z,82.97
2023-03-25T22:19:28.348Z,81.01
2023-03-25T22:22:04.324Z,80.85
2023-03-25T22:24:45.160Z,80.84
2023-03-25T22:27:15.056Z,84.48
2023-03-25T22:29:43.705Z,85.36
2023-03-25T22:32:12.163Z,87.10
2023-03-25T22:34:43.988Z,87.64
2023-03-25T22:37:12.685Z,87.71
2023-03-25T22:40:00.521Z,85.59
2023-03-25T22:42:33.020Z,86.88
2023-03-25T22:45:07.118Z,87.63
2023-03-25T22:47:37.258Z,87.40
2023-03-25T22:50:05.948Z,87.18
2023-03-25T22:52:34.466Z,86.29
2023-03-25T22:55:07.929Z,86.43
2023-03-25T22:57:39.129Z,87.56
2023-03-25T23:00:14.918Z,85.53
2023-03-25T23:02:44.418Z,84.09
2023-03-25T23:05:17.693Z,82.90
2023-03-25T23:07:45.847Z,82.69
2023-03-25T23:10:21.425Z,81.41
2023-03-25T23:12:52.026Z,82.29
2023-03-25T23:15:23.516Z,83.97
2023-03-25T23:17:56.654Z,83.67
2023-03-25T23:20:27.415Z,84.31
2023-03-25T23:22:59.112Z,83.55
2023-03-25T23:25:29.850Z,82.84
2023-03-25T23:28:07.406Z,82.43
2023-03-25T23:30:36.140Z,82.06
2023-03-25T23:33:05.802Z,83.80
2023-03-25T23:35:35.646Z,83.63
2023-03-25T23:38:18.249Z,83.43
2023-03-25T23:40:58.702Z,82.60
2023-03-25T23:43:28.039Z,84.38
2023-03-25T23:45:59.055Z,81.66
2023-03-25T23:48:29.352Z,82.82
2023-03-25T23:50:59.702Z,82.38
2023-03-25T23:53:31.191Z,81.26
2023-03-25T23:56:04.312Z,79.91
2023-03-25T23:58:33.489Z,78.34
